sensor_id;sensor_type;location;lat;lon;timestamp;pressure;altitude;pressure_sealevel;temperature;humidity
74960;BME280;63518;49.572;1.106;2023-07-13T00:00:23;99707.97;;;13.66;100.00
74960;BME280;63518;49.572;1.106;2023-07-13T00:02:50;99751.78;;;14.10;100.00
74960;BME280;63518;49.572;1.106;2023-07-13T00:05:22;99744.25;;;13.97;100.00
74960;BME280;63518;49.572;1.106;2023-07-13T00:07:51;99757.00;;;13.98;100.00
74960;BME280;63518;49.572;1.106;2023-07-13T00:10:21;99728.41;;;13.70;100.00
74960;BME280;63518;49.572;1.106;2023-07-13T00:13:00;99679.91;;;13.40;100.00
74960;BME280;63518;49.572;1.106;2023-07-13T00:15:46;99719.59;;;13.68;100.00
74960;BME280;63518;49.572;1.106;2023-07-13T00:18:33;99687.97;;;13.69;100.00
74960;BME280;63518;49.572;1.106;2023-07-13T00:21:18;99749.47;;;13.85;100.00
74960;BME280;63518;49.572;1.106;2023-07-13T00:23:45;99738.81;;;13.92;100.00
74960;BME280;63518;49.572;1.106;2023-07-13T00:26:12;99734.91;;;13.93;100.00
74960;BME280;63518;49.572;1.106;2023-07-13T00:28:40;99743.19;;;13.79;100.00
74960;BME280;63518;49.572;1.106;2023-07-13T00:31:12;99741.16;;;13.85;100.00
74960;BME280;63518;49.572;1.106;2023-07-13T00:33:42;99741.00;;;13.63;100.00
74960;BME280;63518;49.572;1.106;2023-07-13T00:36:10;99719.16;;;13.61;100.00
74960;BME280;63518;49.572;1.106;2023-07-13T00:38:53;99672.97;;;13.24;100.00
74960;BME280;63518;49.572;1.106;2023-07-13T00:41:32;99671.47;;;13.32;100.00
74960;BME280;63518;49.572;1.106;2023-07-13T00:44:21;99721.59;;;13.63;100.00
74960;BME280;63518;49.572;1.106;2023-07-13T00:47:14;99645.94;;;13.02;100.00
74960;BME280;63518;49.572;1.106;2023-07-13T00:49:56;99655.88;;;13.03;100.00
74960;BME280;63518;49.572;1.106;2023-07-13T00:52:49;99723.38;;;13.40;100.00
74960;BME280;63518;49.572;1.106;2023-07-13T00:55:31;99640.78;;;12.95;100.00
74960;BME280;63518;49.572;1.106;2023-07-13T00:58:12;99658.13;;;13.01;100.00
74960;BME280;63518;49.572;1.106;2023-07-13T01:00:50;99699.44;;;13.30;100.00
74960;BME280;63518;49.572;1.106;2023-07-13T01:03:49;99673.44;;;12.93;100.00
74960;BME280;63518;49.572;1.106;2023-07-13T01:06:46;99653.84;;;12.71;100.00
74960;BME280;63518;49.572;1.106;2023-07-13T01:09:19;99693.72;;;13.08;100.00
74960;BME280;63518;49.572;1.106;2023-07-13T01:11:56;99687.81;;;12.95;100.00
74960;BME280;63518;49.572;1.106;2023-07-13T01:14:26;99673.91;;;13.00;100.00
74960;BME280;63518;49.572;1.106;2023-07-13T01:17:33;99668.66;;;12.80;100.00
74960;BME280;63518;49.572;1.106;2023-07-13T01:20:05;99710.38;;;13.02;100.00
74960;BME280;63518;49.572;1.106;2023-07-13T01:22:43;99747.88;;;13.14;100.00
74960;BME280;63518;49.572;1.106;2023-07-13T01:25:21;99699.16;;;12.94;100.00
74960;BME280;63518;49.572;1.106;2023-07-13T01:28:07;99680.16;;;12.68;100.00
74960;BME280;63518;49.572;1.106;2023-07-13T01:30:39;99675.00;;;12.62;100.00
74960;BME280;63518;49.572;1.106;2023-07-13T01:33:22;99724.81;;;12.81;100.00
74960;BME280;63518;49.572;1.106;2023-07-13T01:35:52;99691.88;;;12.79;100.00
74960;BME280;63518;49.572;1.106;2023-07-13T01:38:31;99661.75;;;12.40;100.00
74960;BME280;63518;49.572;1.106;2023-07-13T01:41:32;99762.75;;;13.18;100.00
74960;BME280;63518;49.572;1.106;2023-07-13T01:44:32;99706.47;;;12.66;100.00
74960;BME280;63518;49.572;1.106;2023-07-13T01:47:04;99697.94;;;12.62;100.00
74960;BME280;63518;49.572;1.106;2023-07-13T01:49:48;99715.53;;;12.90;100.00
74960;BME280;63518;49.572;1.106;2023-07-13T01:52:46;99682.31;;;12.53;100.00
74960;BME280;63518;49.572;1.106;2023-07-13T01:55:34;99686.25;;;12.46;100.00
74960;BME280;63518;49.572;1.106;2023-07-13T01:58:28;99699.56;;;12.44;100.00
74960;BME280;63518;49.572;1.106;2023-07-13T02:00:56;99718.06;;;12.68;100.00
74960;BME280;63518;49.572;1.106;2023-07-13T02:03:38;99738.19;;;12.92;100.00
74960;BME280;63518;49.572;1.106;2023-07-13T02:06:19;99681.91;;;12.64;100.00
74960;BME280;63518;49.572;1.106;2023-07-13T02:08:58;99721.00;;;12.95;100.00
74960;BME280;63518;49.572;1.106;2023-07-13T02:11:40;99750.34;;;13.15;100.00
74960;BME280;63518;49.572;1.106;2023-07-13T02:14:07;99699.94;;;12.99;100.00
74960;BME280;63518;49.572;1.106;2023-07-13T02:16:34;99679.06;;;12.88;100.00
74960;BME280;63518;49.572;1.106;2023-07-13T02:19:17;99781.44;;;13.26;100.00
74960;BME280;63518;49.572;1.106;2023-07-13T02:22:16;99679.78;;;12.75;100.00
74960;BME280;63518;49.572;1.106;2023-07-13T02:25:16;99670.59;;;12.61;100.00
74960;BME280;63518;49.572;1.106;2023-07-13T02:28:03;99682.50;;;12.80;100.00
74960;BME280;63518;49.572;1.106;2023-07-13T02:30:52;99708.16;;;13.05;100.00
74960;BME280;63518;49.572;1.106;2023-07-13T02:33:21;99667.38;;;12.91;100.00
74960;BME280;63518;49.572;1.106;2023-07-13T02:36:02;99696.19;;;13.09;100.00
74960;BME280;63518;49.572;1.106;2023-07-13T02:38:39;99679.22;;;12.97;100.00
74960;BME280;63518;49.572;1.106;2023-07-13T02:41:18;99699.75;;;13.10;100.00
74960;BME280;63518;49.572;1.106;2023-07-13T02:43:58;99670.75;;;13.07;100.00
74960;BME280;63518;49.572;1.106;2023-07-13T02:46:42;99707.25;;;13.28;100.00
74960;BME280;63518;49.572;1.106;2023-07-13T02:49:42;99660.56;;;12.84;100.00
74960;BME280;63518;49.572;1.106;2023-07-13T02:52:26;99712.78;;;13.09;100.00
74960;BME280;63518;49.572;1.106;2023-07-13T02:55:30;99653.84;;;12.90;100.00
74960;BME280;63518;49.572;1.106;2023-07-13T02:58:10;99692.06;;;13.07;100.00
74960;BME280;63518;49.572;1.106;2023-07-13T03:01:06;99732.16;;;13.28;100.00
74960;BME280;63518;49.572;1.106;2023-07-13T03:04:05;99669.69;;;12.84;100.00
74960;BME280;63518;49.572;1.106;2023-07-13T03:06:35;99709.63;;;13.16;100.00
74960;BME280;63518;49.572;1.106;2023-07-13T03:09:10;99652.44;;;12.73;100.00
74960;BME280;63518;49.572;1.106;2023-07-13T03:11:57;99724.31;;;13.49;100.00
74960;BME280;63518;49.572;1.106;2023-07-13T03:14:26;99695.47;;;13.04;100.00
74960;BME280;63518;49.572;1.106;2023-07-13T03:17:34;99689.81;;;13.09;100.00
74960;BME280;63518;49.572;1.106;2023-07-13T03:20:20;99662.47;;;12.88;100.00
74960;BME280;63518;49.572;1.106;2023-07-13T03:23:11;99717.78;;;13.26;100.00
74960;BME280;63518;49.572;1.106;2023-07-13T03:26:20;99672.88;;;12.96;100.00
74960;BME280;63518;49.572;1.106;2023-07-13T03:28:58;99670.66;;;12.93;100.00
74960;BME280;63518;49.572;1.106;2023-07-13T03:31:56;99685.94;;;13.10;100.00
74960;BME280;63518;49.572;1.106;2023-07-13T03:34:46;99730.16;;;13.47;100.00
74960;BME280;63518;49.572;1.106;2023-07-13T03:37:25;99742.38;;;13.46;100.00
74960;BME280;63518;49.572;1.106;2023-07-13T03:40:09;99675.00;;;13.18;100.00
74960;BME280;63518;49.572;1.106;2023-07-13T03:43:01;99698.41;;;13.26;100.00
74960;BME280;63518;49.572;1.106;2023-07-13T03:45:43;99664.59;;;13.29;100.00
74960;BME280;63518;49.572;1.106;2023-07-13T03:48:41;99734.50;;;13.53;100.00
74960;BME280;63518;49.572;1.106;2023-07-13T03:51:15;99702.16;;;13.35;100.00
74960;BME280;63518;49.572;1.106;2023-07-13T03:54:12;99672.66;;;13.25;100.00
74960;BME280;63518;49.572;1.106;2023-07-13T03:56:40;99719.34;;;13.32;100.00
74960;BME280;63518;49.572;1.106;2023-07-13T03:59:12;99702.16;;;13.35;100.00
74960;BME280;63518;49.572;1.106;2023-07-13T04:01:55;99717.25;;;13.24;100.00
74960;BME280;63518;49.572;1.106;2023-07-13T04:04:24;99703.88;;;13.31;100.00
74960;BME280;63518;49.572;1.106;2023-07-13T04:06:59;99791.34;;;13.97;100.00
74960;BME280;63518;49.572;1.106;2023-07-13T04:09:33;99698.31;;;13.31;100.00
74960;BME280;63518;49.572;1.106;2023-07-13T04:12:12;99735.53;;;13.57;100.00
74960;BME280;63518;49.572;1.106;2023-07-13T04:14:48;99785.13;;;13.73;100.00
74960;BME280;63518;49.572;1.106;2023-07-13T04:17:30;99695.19;;;13.38;100.00
74960;BME280;63518;49.572;1.106;2023-07-13T04:20:03;99754.88;;;13.44;100.00
74960;BME280;63518;49.572;1.106;2023-07-13T04:22:32;99802.97;;;13.99;100.00
74960;BME280;63518;49.572;1.106;2023-07-13T04:25:22;99704.63;;;13.18;100.00
74960;BME280;63518;49.572;1.106;2023-07-13T04:28:08;99746.16;;;13.50;100.00
74960;BME280;63518;49.572;1.106;2023-07-13T04:31:02;99742.44;;;13.41;100.00
74960;BME280;63518;49.572;1.106;2023-07-13T04:34:10;99713.28;;;13.30;100.00
74960;BME280;63518;49.572;1.106;2023-07-13T04:36:45;99754.41;;;13.55;100.00
74960;BME280;63518;49.572;1.106;2023-07-13T04:39:49;99752.06;;;13.63;100.00
74960;BME280;63518;49.572;1.106;2023-07-13T04:42:28;99743.63;;;13.54;100.00
74960;BME280;63518;49.572;1.106;2023-07-13T04:45:14;99766.53;;;13.60;100.00
74960;BME280;63518;49.572;1.106;2023-07-13T04:48:02;99732.75;;;13.57;100.00
74960;BME280;63518;49.572;1.106;2023-07-13T04:50:45;99735.19;;;13.45;100.00
74960;BME280;63518;49.572;1.106;2023-07-13T04:53:26;99737.53;;;13.71;100.00
74960;BME280;63518;49.572;1.106;2023-07-13T04:55:53;99759.00;;;13.79;100.00
74960;BME280;63518;49.572;1.106;2023-07-13T04:58:40;99781.66;;;13.81;100.00
74960;BME280;63518;49.572;1.106;2023-07-13T05:01:11;99782.16;;;13.69;100.00
74960;BME280;63518;49.572;1.106;2023-07-13T05:03:52;99832.41;;;14.14;100.00
74960;BME280;63518;49.572;1.106;2023-07-13T05:06:35;99768.94;;;13.47;100.00
74960;BME280;63518;49.572;1.106;2023-07-13T05:09:43;99759.19;;;13.69;100.00
74960;BME280;63518;49.572;1.106;2023-07-13T05:12:41;99737.72;;;13.42;100.00
74960;BME280;63518;49.572;1.106;2023-07-13T05:15:26;99779.63;;;13.86;100.00
74960;BME280;63518;49.572;1.106;2023-07-13T05:18:37;99823.84;;;14.10;100.00
74960;BME280;63518;49.572;1.106;2023-07-13T05:21:28;99829.88;;;14.31;100.00
74960;BME280;63518;49.572;1.106;2023-07-13T05:23:55;99833.34;;;14.04;100.00
74960;BME280;63518;49.572;1.106;2023-07-13T05:26:24;99829.97;;;14.26;100.00
74960;BME280;63518;49.572;1.106;2023-07-13T05:28:58;99836.94;;;14.37;100.00
74960;BME280;63518;49.572;1.106;2023-07-13T05:31:25;99839.53;;;14.34;100.00
74960;BME280;63518;49.572;1.106;2023-07-13T05:33:53;99827.47;;;14.11;100.00
74960;BME280;63518;49.572;1.106;2023-07-13T05:36:20;99835.13;;;14.33;100.00
74960;BME280;63518;49.572;1.106;2023-07-13T05:38:48;99843.03;;;14.39;100.00
74960;BME280;63518;49.572;1.106;2023-07-13T05:41:15;99808.28;;;14.15;100.00
74960;BME280;63518;49.572;1.106;2023-07-13T05:43:52;99811.50;;;14.35;100.00
74960;BME280;63518;49.572;1.106;2023-07-13T05:46:21;99831.44;;;14.51;100.00
74960;BME280;63518;49.572;1.106;2023-07-13T05:48:51;99804.63;;;14.47;100.00
74960;BME280;63518;49.572;1.106;2023-07-13T05:51:18;99838.44;;;14.76;100.00
74960;BME280;63518;49.572;1.106;2023-07-13T05:53:45;99819.63;;;14.59;100.00
74960;BME280;63518;49.572;1.106;2023-07-13T05:56:13;99827.97;;;14.73;100.00
74960;BME280;63518;49.572;1.106;2023-07-13T05:58:40;99842.03;;;14.77;100.00
74960;BME280;63518;49.572;1.106;2023-07-13T06:01:12;99830.63;;;14.78;100.00
74960;BME280;63518;49.572;1.106;2023-07-13T06:03:40;99854.16;;;14.67;100.00
74960;BME280;63518;49.572;1.106;2023-07-13T06:06:09;99854.88;;;14.73;100.00
74960;BME280;63518;49.572;1.106;2023-07-13T06:08:49;99817.25;;;14.66;100.00
74960;BME280;63518;49.572;1.106;2023-07-13T06:11:20;99856.63;;;15.10;100.00
74960;BME280;63518;49.572;1.106;2023-07-13T06:13:49;99847.34;;;15.01;100.00
74960;BME280;63518;49.572;1.106;2023-07-13T06:16:16;99854.25;;;15.17;100.00
74960;BME280;63518;49.572;1.106;2023-07-13T06:18:44;99834.72;;;15.08;100.00
74960;BME280;63518;49.572;1.106;2023-07-13T06:21:19;99863.94;;;15.33;100.00
74960;BME280;63518;49.572;1.106;2023-07-13T06:23:54;99857.94;;;14.85;100.00
74960;BME280;63518;49.572;1.106;2023-07-13T06:26:39;99805.28;;;15.35;100.00
74960;BME280;63518;49.572;1.106;2023-07-13T06:29:18;99845.88;;;15.44;100.00
74960;BME280;63518;49.572;1.106;2023-07-13T06:32:15;99863.88;;;15.47;100.00
74960;BME280;63518;49.572;1.106;2023-07-13T06:34:43;99818.94;;;15.45;100.00
74960;BME280;63518;49.572;1.106;2023-07-13T06:37:11;99869.88;;;15.76;100.00
74960;BME280;63518;49.572;1.106;2023-07-13T06:39:49;99877.09;;;16.00;100.00
74960;BME280;63518;49.572;1.106;2023-07-13T06:42:23;99841.66;;;15.83;100.00
74960;BME280;63518;49.572;1.106;2023-07-13T06:44:51;99870.53;;;15.60;100.00
74960;BME280;63518;49.572;1.106;2023-07-13T06:47:19;99846.53;;;15.41;100.00
74960;BME280;63518;49.572;1.106;2023-07-13T06:49:47;99814.53;;;15.66;100.00
74960;BME280;63518;49.572;1.106;2023-07-13T06:52:19;99823.66;;;15.44;100.00
74960;BME280;63518;49.572;1.106;2023-07-13T06:54:49;99797.84;;;15.44;100.00
74960;BME280;63518;49.572;1.106;2023-07-13T06:57:25;99823.25;;;15.51;100.00
74960;BME280;63518;49.572;1.106;2023-07-13T06:59:57;99849.97;;;15.83;100.00
74960;BME280;63518;49.572;1.106;2023-07-13T07:02:26;99896.06;;;16.43;100.00
74960;BME280;63518;49.572;1.106;2023-07-13T07:05:04;99814.66;;;16.06;100.00
74960;BME280;63518;49.572;1.106;2023-07-13T07:07:48;99817.50;;;16.15;100.00
74960;BME280;63518;49.572;1.106;2023-07-13T07:10:30;99829.94;;;16.40;100.00
74960;BME280;63518;49.572;1.106;2023-07-13T07:13:02;99872.25;;;16.28;100.00
74960;BME280;63518;49.572;1.106;2023-07-13T07:15:30;99912.09;;;16.68;100.00
74960;BME280;63518;49.572;1.106;2023-07-13T07:17:58;99861.34;;;16.71;100.00
74960;BME280;63518;49.572;1.106;2023-07-13T07:20:36;99919.47;;;17.04;100.00
74960;BME280;63518;49.572;1.106;2023-07-13T07:23:12;99917.50;;;16.73;100.00
74960;BME280;63518;49.572;1.106;2023-07-13T07:25:53;99847.13;;;16.42;100.00
74960;BME280;63518;49.572;1.106;2023-07-13T07:28:24;99841.88;;;16.71;100.00
74960;BME280;63518;49.572;1.106;2023-07-13T07:31:16;99860.88;;;16.78;100.00
74960;BME280;63518;49.572;1.106;2023-07-13T07:33:49;99894.25;;;16.69;100.00
74960;BME280;63518;49.572;1.106;2023-07-13T07:36:22;99885.72;;;16.66;100.00
74960;BME280;63518;49.572;1.106;2023-07-13T07:38:52;99891.97;;;16.71;100.00
74960;BME280;63518;49.572;1.106;2023-07-13T07:41:20;99926.69;;;17.53;100.00
74960;BME280;63518;49.572;1.106;2023-07-13T07:43:52;99929.72;;;17.17;100.00
74960;BME280;63518;49.572;1.106;2023-07-13T07:46:19;99922.28;;;17.69;100.00
74960;BME280;63518;49.572;1.106;2023-07-13T07:48:46;99935.56;;;17.64;100.00
74960;BME280;63518;49.572;1.106;2023-07-13T07:51:13;99950.66;;;17.71;100.00
74960;BME280;63518;49.572;1.106;2023-07-13T07:53:41;99951.81;;;17.70;99.89
74960;BME280;63518;49.572;1.106;2023-07-13T07:56:16;99940.84;;;16.86;100.00
74960;BME280;63518;49.572;1.106;2023-07-13T07:58:49;99959.41;;;18.48;97.66
74960;BME280;63518;49.572;1.106;2023-07-13T08:01:28;99968.25;;;18.76;95.91
74960;BME280;63518;49.572;1.106;2023-07-13T08:04:01;99893.41;;;17.48;97.00
74960;BME280;63518;49.572;1.106;2023-07-13T08:06:34;99897.88;;;18.27;96.49
74960;BME280;63518;49.572;1.106;2023-07-13T08:09:04;99953.28;;;17.85;98.51
74960;BME280;63518;49.572;1.106;2023-07-13T08:11:34;99960.34;;;17.83;97.84
74960;BME280;63518;49.572;1.106;2023-07-13T08:14:04;99948.13;;;18.27;96.53
74960;BME280;63518;49.572;1.106;2023-07-13T08:16:31;99959.41;;;18.39;95.38
74960;BME280;63518;49.572;1.106;2023-07-13T08:18:59;99966.31;;;18.50;95.97
74960;BME280;63518;49.572;1.106;2023-07-13T08:21:27;99962.78;;;18.79;95.17
74960;BME280;63518;49.572;1.106;2023-07-13T08:23:55;99955.81;;;18.21;96.18
74960;BME280;63518;49.572;1.106;2023-07-13T08:26:22;99956.91;;;18.64;95.86
74960;BME280;63518;49.572;1.106;2023-07-13T08:28:49;99958.28;;;18.49;92.86
74960;BME280;63518;49.572;1.106;2023-07-13T08:31:16;99955.75;;;18.82;94.81
74960;BME280;63518;49.572;1.106;2023-07-13T08:33:43;99950.69;;;19.22;92.11
74960;BME280;63518;49.572;1.106;2023-07-13T08:36:11;99956.66;;;19.03;91.73
74960;BME280;63518;49.572;1.106;2023-07-13T08:38:38;99969.47;;;19.81;90.10
74960;BME280;63518;49.572;1.106;2023-07-13T08:41:17;99964.34;;;19.53;89.55
74960;BME280;63518;49.572;1.106;2023-07-13T08:43:57;99961.50;;;19.32;91.84
74960;BME280;63518;49.572;1.106;2023-07-13T08:46:32;99957.31;;;19.77;90.09
74960;BME280;63518;49.572;1.106;2023-07-13T08:49:09;99972.75;;;19.53;90.73
74960;BME280;63518;49.572;1.106;2023-07-13T08:51:42;99972.09;;;19.48;89.27
74960;BME280;63518;49.572;1.106;2023-07-13T08:56:50;99955.16;;;20.03;87.45
74960;BME280;63518;49.572;1.106;2023-07-13T08:59:24;99958.78;;;20.24;87.54
74960;BME280;63518;49.572;1.106;2023-07-13T09:02:06;99962.47;;;20.58;85.58
74960;BME280;63518;49.572;1.106;2023-07-13T09:07:28;99968.69;;;20.01;88.24
74960;BME280;63518;49.572;1.106;2023-07-13T09:10:05;99977.31;;;19.58;87.55
74960;BME280;63518;49.572;1.106;2023-07-13T09:15:27;99978.66;;;20.32;85.52
74960;BME280;63518;49.572;1.106;2023-07-13T09:18:04;99975.34;;;19.88;86.88
74960;BME280;63518;49.572;1.106;2023-07-13T09:20:43;99969.03;;;19.70;85.88
74960;BME280;63518;49.572;1.106;2023-07-13T09:23:15;99980.19;;;19.79;88.29
74960;BME280;63518;49.572;1.106;2023-07-13T09:25:51;99974.53;;;19.28;89.13
74960;BME280;63518;49.572;1.106;2023-07-13T09:28:25;99969.91;;;19.24;86.96
74960;BME280;63518;49.572;1.106;2023-07-13T09:31:06;99980.00;;;20.46;83.19
74960;BME280;63518;49.572;1.106;2023-07-13T09:33:34;99941.91;;;20.54;83.82
74960;BME280;63518;49.572;1.106;2023-07-13T09:36:24;99972.19;;;21.18;80.84
74960;BME280;63518;49.572;1.106;2023-07-13T09:39:04;99974.47;;;19.96;82.79
74960;BME280;63518;49.572;1.106;2023-07-13T09:44:15;99977.91;;;20.22;82.04
74960;BME280;63518;49.572;1.106;2023-07-13T09:46:47;99973.53;;;20.88;82.42
74960;BME280;63518;49.572;1.106;2023-07-13T09:49:24;99958.78;;;21.48;79.46
74960;BME280;63518;49.572;1.106;2023-07-13T09:52:00;99973.69;;;21.03;77.54
74960;BME280;63518;49.572;1.106;2023-07-13T09:54:28;99964.63;;;21.55;80.06
74960;BME280;63518;49.572;1.106;2023-07-13T09:56:59;99979.13;;;21.33;78.92
74960;BME280;63518;49.572;1.106;2023-07-13T09:59:33;99961.09;;;21.22;80.19
74960;BME280;63518;49.572;1.106;2023-07-13T10:02:00;99980.47;;;20.69;79.59
74960;BME280;63518;49.572;1.106;2023-07-13T10:04:33;99987.38;;;21.29;78.91
74960;BME280;63518;49.572;1.106;2023-07-13T10:07:08;99981.13;;;21.57;78.25
74960;BME280;63518;49.572;1.106;2023-07-13T10:09:56;99977.69;;;21.27;76.17
74960;BME280;63518;49.572;1.106;2023-07-13T10:12:24;99963.25;;;21.49;75.91
74960;BME280;63518;49.572;1.106;2023-07-13T10:14:54;99981.13;;;21.69;76.88
74960;BME280;63518;49.572;1.106;2023-07-13T10:17:38;99974.47;;;19.96;81.79
74960;BME280;63518;49.572;1.106;2023-07-13T10:20:07;99982.03;;;21.85;75.57
74960;BME280;63518;49.572;1.106;2023-07-13T10:25:22;99969.00;;;22.86;70.91
74960;BME280;63518;49.572;1.106;2023-07-13T10:27:54;99986.44;;;22.51;70.10
74960;BME280;63518;49.572;1.106;2023-07-13T10:30:35;99988.75;;;22.89;69.42
74960;BME280;63518;49.572;1.106;2023-07-13T10:33:10;99990.09;;;23.87;66.93
74960;BME280;63518;49.572;1.106;2023-07-13T10:35:41;99985.38;;;22.56;66.47
74960;BME280;63518;49.572;1.106;2023-07-13T10:38:15;100000.41;;;22.76;68.80
74960;BME280;63518;49.572;1.106;2023-07-13T10:40:58;100011.94;;;23.30;69.92
74960;BME280;63518;49.572;1.106;2023-07-13T10:44:04;100002.81;;;23.33;70.22
74960;BME280;63518;49.572;1.106;2023-07-13T10:46:26;99992.44;;;22.78;69.15
74960;BME280;63518;49.572;1.106;2023-07-13T10:49:02;99997.81;;;24.09;64.43
74960;BME280;63518;49.572;1.106;2023-07-13T10:51:31;99996.75;;;23.63;67.54
74960;BME280;63518;49.572;1.106;2023-07-13T10:54:18;100001.81;;;23.41;64.88
74960;BME280;63518;49.572;1.106;2023-07-13T10:57:19;99994.13;;;24.05;62.15
74960;BME280;63518;49.572;1.106;2023-07-13T10:59:49;100001.53;;;23.78;65.82
74960;BME280;63518;49.572;1.106;2023-07-13T11:02:26;99987.75;;;20.83;67.83
74960;BME280;63518;49.572;1.106;2023-07-13T11:04:55;99996.06;;;22.10;66.65
74960;BME280;63518;49.572;1.106;2023-07-13T11:07:28;100000.06;;;23.37;63.46
74960;BME280;63518;49.572;1.106;2023-07-13T11:09:59;100009.69;;;23.36;61.90
74960;BME280;63518;49.572;1.106;2023-07-13T11:15:28;100023.13;;;23.42;64.01
74960;BME280;63518;49.572;1.106;2023-07-13T11:17:56;100013.13;;;21.93;66.07
74960;BME280;63518;49.572;1.106;2023-07-13T11:20:33;100022.47;;;21.72;68.41
74960;BME280;63518;49.572;1.106;2023-07-13T11:25:43;100020.59;;;21.40;72.42
74960;BME280;63518;49.572;1.106;2023-07-13T11:30:43;100019.41;;;20.41;80.55
74960;BME280;63518;49.572;1.106;2023-07-13T11:33:25;100015.31;;;20.60;79.28
74960;BME280;63518;49.572;1.106;2023-07-13T11:38:31;99999.81;;;21.53;74.07
74960;BME280;63518;49.572;1.106;2023-07-13T11:41:06;99997.00;;;22.82;71.56
74960;BME280;63518;49.572;1.106;2023-07-13T11:43:36;99986.25;;;24.30;66.24
74960;BME280;63518;49.572;1.106;2023-07-13T11:46:23;99993.53;;;24.50;63.91
74960;BME280;63518;49.572;1.106;2023-07-13T11:48:51;100004.28;;;23.59;60.16
74960;BME280;63518;49.572;1.106;2023-07-13T11:51:31;99999.31;;;24.38;59.95
74960;BME280;63518;49.572;1.106;2023-07-13T11:54:03;99983.72;;;25.25;55.31
74960;BME280;63518;49.572;1.106;2023-07-13T11:56:30;99989.81;;;23.28;61.35
74960;BME280;63518;49.572;1.106;2023-07-13T11:59:05;99990.78;;;24.92;59.66
74960;BME280;63518;49.572;1.106;2023-07-13T12:01:33;99988.88;;;24.03;57.61
74960;BME280;63518;49.572;1.106;2023-07-13T12:04:03;99974.03;;;23.24;61.34
74960;BME280;63518;49.572;1.106;2023-07-13T12:06:35;99978.34;;;23.84;61.94
74960;BME280;63518;49.572;1.106;2023-07-13T12:09:12;99988.19;;;23.27;65.00
74960;BME280;63518;49.572;1.106;2023-07-13T12:11:44;99973.66;;;22.82;61.83
74960;BME280;63518;49.572;1.106;2023-07-13T12:14:18;99974.97;;;22.04;65.68
74960;BME280;63518;49.572;1.106;2023-07-13T12:16:46;99993.63;;;21.59;68.61
74960;BME280;63518;49.572;1.106;2023-07-13T12:19:26;100003.31;;;22.11;70.59
74960;BME280;63518;49.572;1.106;2023-07-13T12:21:56;99988.81;;;20.78;73.04
74960;BME280;63518;49.572;1.106;2023-07-13T12:24:24;99986.00;;;19.65;77.33
74960;BME280;63518;49.572;1.106;2023-07-13T12:27:02;99993.63;;;20.90;76.04
74960;BME280;63518;49.572;1.106;2023-07-13T12:29:33;99977.16;;;21.00;77.53
74960;BME280;63518;49.572;1.106;2023-07-13T12:32:00;99982.41;;;21.47;75.41
74960;BME280;63518;49.572;1.106;2023-07-13T12:34:26;99992.97;;;20.51;77.64
74960;BME280;63518;49.572;1.106;2023-07-13T12:37:01;99994.00;;;21.58;74.23
74960;BME280;63518;49.572;1.106;2023-07-13T12:39:38;99987.38;;;21.29;71.21
74960;BME280;63518;49.572;1.106;2023-07-13T12:42:28;99991.78;;;21.06;69.28
74960;BME280;63518;49.572;1.106;2023-07-13T12:45:26;99995.59;;;21.34;71.27
74960;BME280;63518;49.572;1.106;2023-07-13T12:48:03;99982.44;;;20.69;69.87
74960;BME280;63518;49.572;1.106;2023-07-13T12:50:39;99992.53;;;21.27;68.08
74960;BME280;63518;49.572;1.106;2023-07-13T12:53:15;99982.72;;;19.63;73.84
74960;BME280;63518;49.572;1.106;2023-07-13T12:55:46;99960.22;;;19.59;74.78
74960;BME280;63518;49.572;1.106;2023-07-13T12:58:27;99999.78;;;19.79;73.32
74960;BME280;63518;49.572;1.106;2023-07-13T13:00:57;99982.53;;;20.18;75.47
74960;BME280;63518;49.572;1.106;2023-07-13T13:03:49;99995.38;;;20.94;71.69
74960;BME280;63518;49.572;1.106;2023-07-13T13:08:46;99983.91;;;23.02;67.83
74960;BME280;63518;49.572;1.106;2023-07-13T13:11:15;99969.19;;;21.84;63.37
74960;BME280;63518;49.572;1.106;2023-07-13T13:13:43;99971.59;;;23.54;60.55
74960;BME280;63518;49.572;1.106;2023-07-13T13:16:21;99980.38;;;23.21;61.00
74960;BME280;63518;49.572;1.106;2023-07-13T13:18:50;99977.47;;;23.49;61.36
74960;BME280;63518;49.572;1.106;2023-07-13T13:21:18;99967.59;;;23.23;57.12
74960;BME280;63518;49.572;1.106;2023-07-13T13:23:46;99971.13;;;23.20;54.34
74960;BME280;63518;49.572;1.106;2023-07-13T13:26:15;99972.66;;;23.81;53.19
74960;BME280;63518;49.572;1.106;2023-07-13T13:28:46;99974.00;;;24.80;53.89
74960;BME280;63518;49.572;1.106;2023-07-13T13:31:14;99973.91;;;23.05;52.87
74960;BME280;63518;49.572;1.106;2023-07-13T13:33:43;99983.50;;;20.64;62.40
74960;BME280;63518;49.572;1.106;2023-07-13T13:36:18;99967.72;;;22.03;62.23
74960;BME280;63518;49.572;1.106;2023-07-13T13:38:46;99975.53;;;21.57;58.83
74960;BME280;63518;49.572;1.106;2023-07-13T13:41:14;99979.44;;;22.17;62.70
74960;BME280;63518;49.572;1.106;2023-07-13T13:43:42;99978.53;;;22.41;59.77
74960;BME280;63518;49.572;1.106;2023-07-13T13:46:21;99967.22;;;22.81;63.82
74960;BME280;63518;49.572;1.106;2023-07-13T13:48:51;99985.72;;;22.26;63.72
74960;BME280;63518;49.572;1.106;2023-07-13T13:51:20;99972.72;;;21.45;63.60
74960;BME280;63518;49.572;1.106;2023-07-13T13:53:48;99985.47;;;20.43;64.41
74960;BME280;63518;49.572;1.106;2023-07-13T13:56:18;99986.28;;;21.67;65.27
74960;BME280;63518;49.572;1.106;2023-07-13T13:58:45;99989.47;;;21.20;66.97
74960;BME280;63518;49.572;1.106;2023-07-13T14:01:17;99990.53;;;21.28;67.23
74960;BME280;63518;49.572;1.106;2023-07-13T14:03:45;99982.63;;;21.54;68.27
74960;BME280;63518;49.572;1.106;2023-07-13T14:06:15;99977.38;;;21.89;64.54
74960;BME280;63518;49.572;1.106;2023-07-13T14:08:43;99971.69;;;22.26;65.76
74960;BME280;63518;49.572;1.106;2023-07-13T14:11:14;99980.03;;;22.79;64.00